createdAt,value
2018-05-19T00:01:05.699Z,14.40
2018-05-19T00:03:33.166Z,14.40
2018-05-19T00:06:00.813Z,14.30
2018-05-19T00:08:28.292Z,14.30
2018-05-19T00:10:55.928Z,14.30
2018-05-19T00:13:23.430Z,14.30
2018-05-19T00:15:50.912Z,14.30
2018-05-19T00:18:19.144Z,14.20
2018-05-19T00:20:46.620Z,14.20
2018-05-19T00:23:14.072Z,14.20
2018-05-19T00:25:41.599Z,14.10
2018-05-19T00:28:09.044Z,14.10
2018-05-19T00:30:36.535Z,14.10
2018-05-19T00:33:04.036Z,14.10
2018-05-19T00:35:32.350Z,14.00
2018-05-19T00:38:00.051Z,14.00
2018-05-19T00:40:28.295Z,14.00
2018-05-19T00:42:55.748Z,14.00
2018-05-19T00:45:23.252Z,14.00
2018-05-19T00:47:50.796Z,13.90
2018-05-19T00:50:18.452Z,13.90
2018-05-19T00:52:46.004Z,13.80
2018-05-19T00:55:14.259Z,13.80
2018-05-19T00:57:41.747Z,13.70
2018-05-19T01:00:09.208Z,13.70
2018-05-19T01:02:36.695Z,13.60
2018-05-19T01:05:04.915Z,13.50
2018-05-19T01:07:32.420Z,13.50
2018-05-19T01:10:00.638Z,13.40
2018-05-19T01:12:28.104Z,13.40
2018-05-19T01:14:55.592Z,13.40
2018-05-19T01:17:23.055Z,13.40
2018-05-19T01:19:50.646Z,13.40
2018-05-19T01:22:18.095Z,13.40
2018-05-19T01:24:46.602Z,13.40
2018-05-19T01:27:14.058Z,13.40
2018-05-19T02:13:24.434Z,12.30
2018-05-19T02:15:51.971Z,12.30
2018-05-19T02:18:21.358Z,12.30
2018-05-19T02:20:48.804Z,12.30
2018-05-19T02:23:17.488Z,12.40
2018-05-19T02:25:44.944Z,12.40
2018-05-19T02:28:13.242Z,12.50
2018-05-19T02:30:40.768Z,12.50
2018-05-19T02:33:08.291Z,12.50
2018-05-19T02:35:35.770Z,12.60
2018-05-19T02:38:03.261Z,12.60
2018-05-19T02:40:30.733Z,12.70
2018-05-19T02:42:58.215Z,12.70
2018-05-19T02:45:25.730Z,12.80
2018-05-19T02:47:53.241Z,12.80
2018-05-19T02:50:21.455Z,12.80
2018-05-19T02:52:48.957Z,12.80
2018-05-19T02:55:16.801Z,12.80
2018-05-19T02:57:44.276Z,12.80
2018-05-19T03:00:12.070Z,12.80
2018-05-19T03:02:40.283Z,12.70
2018-05-19T03:05:09.837Z,12.60
2018-05-19T03:07:37.288Z,12.60
2018-05-19T03:10:07.431Z,12.60
2018-05-19T03:12:35.660Z,12.60
2018-05-19T03:15:04.466Z,12.60
2018-05-19T03:17:31.940Z,12.60
2018-05-19T03:20:00.231Z,12.70
2018-05-19T03:22:27.738Z,12.70
2018-05-19T03:24:56.785Z,12.80
2018-05-19T03:27:24.311Z,12.80
2018-05-19T03:29:51.880Z,12.90
2018-05-19T03:32:19.502Z,12.90
2018-05-19T03:34:48.374Z,12.90
2018-05-19T03:37:16.694Z,12.90
2018-05-19T03:39:44.630Z,12.90
2018-05-19T03:42:12.935Z,12.90
2018-05-19T03:44:40.564Z,12.90
2018-05-19T03:47:08.024Z,12.90
2018-05-19T03:49:35.512Z,12.90
2018-05-19T03:52:02.963Z,12.90
2018-05-19T03:54:30.467Z,12.90
2018-05-19T03:57:09.851Z,12.90
2018-05-19T03:59:49.404Z,12.90
2018-05-19T04:02:28.942Z,12.90
2018-05-19T04:04:56.480Z,12.90
2018-05-19T04:07:24.155Z,12.90
2018-05-19T04:09:51.731Z,12.90
2018-05-19T04:12:19.956Z,13.00
2018-05-19T04:14:47.471Z,13.00
2018-05-19T04:17:15.705Z,13.10
2018-05-19T04:19:43.231Z,13.00
2018-05-19T04:22:10.720Z,13.10
2018-05-19T04:24:38.194Z,13.10
2018-05-19T04:27:05.684Z,13.20
2018-05-19T04:29:33.925Z,13.20
2018-05-19T04:32:01.380Z,13.20
2018-05-19T04:34:28.860Z,13.30
2018-05-19T04:36:57.258Z,13.40
2018-05-19T04:39:24.738Z,13.40
2018-05-19T04:41:53.581Z,13.40
2018-05-19T04:44:21.184Z,13.40
2018-05-19T04:46:48.783Z,13.40
2018-05-19T04:49:16.279Z,13.40
2018-05-19T04:51:44.623Z,13.50
2018-05-19T04:54:12.149Z,13.50
2018-05-19T04:56:39.598Z,13.60
2018-05-19T04:59:07.223Z,13.60
2018-05-19T05:01:35.470Z,13.70
2018-05-19T05:04:02.928Z,13.60
2018-05-19T05:06:30.398Z,13.70
2018-05-19T05:08:58.617Z,13.80
2018-05-19T05:11:26.086Z,13.80
2018-05-19T05:13:53.632Z,13.80
2018-05-19T05:16:21.028Z,13.80
2018-05-19T05:18:48.648Z,13.80
2018-05-19T05:21:16.206Z,13.90
2018-05-19T05:23:45.708Z,13.90
2018-05-19T05:26:13.178Z,13.90
2018-05-19T05:28:40.791Z,14.00
2018-05-19T05:31:08.325Z,14.00
2018-05-19T05:33:37.570Z,14.10
2018-05-19T05:36:05.067Z,14.10
2018-05-19T05:38:34.640Z,14.10
2018-05-19T05:41:02.171Z,14.10
2018-05-19T05:43:30.582Z,14.20
2018-05-19T05:45:58.044Z,14.10
2018-05-19T05:48:25.545Z,14.20
2018-05-19T05:50:52.987Z,14.20
2018-05-19T05:53:20.463Z,14.30
2018-05-19T05:55:47.986Z,14.30
2018-05-19T05:58:15.458Z,14.40
2018-05-19T06:00:42.908Z,14.40
2018-05-19T06:03:10.384Z,14.50
2018-05-19T06:05:37.874Z,14.60
2018-05-19T06:08:05.325Z,14.60
2018-05-19T06:10:34.329Z,14.60
2018-05-19T06:13:02.538Z,14.60
2018-05-19T06:15:30.189Z,14.60
2018-05-19T06:17:57.675Z,14.60
2018-05-19T06:20:27.184Z,14.60
2018-05-19T06:22:56.163Z,14.70
2018-05-19T06:25:23.729Z,14.70
2018-05-19T06:27:51.276Z,14.80
2018-05-19T06:30:21.106Z,14.90
2018-05-19T06:32:48.546Z,14.90
2018-05-19T06:35:16.083Z,15.10
2018-05-19T06:37:43.535Z,15.10
2018-05-19T06:40:11.076Z,15.10
2018-05-19T06:42:38.715Z,15.10
2018-05-19T06:45:07.044Z,15.30
2018-05-19T06:47:34.581Z,15.30
2018-05-19T06:50:02.044Z,15.40
2018-05-19T06:52:29.534Z,15.60
2018-05-19T06:54:57.045Z,15.80
2018-05-19T06:57:24.507Z,15.90
2018-05-19T06:59:52.033Z,16.00
2018-05-19T07:02:19.501Z,16.10
2018-05-19T07:04:47.719Z,16.30
2018-05-19T07:07:15.473Z,16.20
2018-05-19T07:09:42.974Z,16.30
2018-05-19T07:12:11.241Z,16.40
2018-05-19T07:14:38.773Z,16.60
2018-05-19T07:17:09.992Z,16.70
2018-05-19T07:19:37.466Z,16.70
2018-05-19T07:22:05.477Z,16.70
2018-05-19T07:24:32.984Z,16.70
2018-05-19T07:27:00.790Z,16.70
2018-05-19T07:29:28.307Z,16.70
2018-05-19T07:31:56.113Z,16.60
2018-05-19T07:34:23.695Z,16.50
2018-05-19T07:36:51.969Z,16.50
2018-05-19T07:39:19.657Z,16.50
2018-05-19T07:41:47.174Z,16.50
2018-05-19T07:44:14.676Z,16.60
2018-05-19T07:46:42.199Z,16.60
2018-05-19T07:49:09.691Z,16.60
2018-05-19T07:51:37.144Z,16.60
2018-05-19T07:54:04.625Z,16.60
2018-05-19T07:56:32.062Z,16.70
2018-05-19T07:59:01.649Z,16.80
2018-05-19T08:01:30.283Z,16.90
2018-05-19T08:03:59.000Z,16.90
2018-05-19T08:06:26.548Z,17.00
2018-05-19T08:08:54.092Z,17.10
2018-05-19T08:11:21.639Z,17.30
2018-05-19T08:13:51.378Z,17.40
2018-05-19T08:16:18.836Z,17.60
2018-05-19T08:18:46.545Z,17.80
2018-05-19T08:21:14.015Z,17.80
2018-05-19T08:23:41.574Z,17.70
2018-05-19T08:26:09.117Z,17.60
2018-05-19T08:28:36.756Z,17.50
2018-05-19T08:31:04.356Z,17.40
2018-05-19T08:33:31.803Z,17.30
2018-05-19T08:35:59.295Z,17.10
2018-05-19T08:38:26.777Z,17.00
2018-05-19T08:40:54.286Z,17.00
2018-05-19T08:43:21.715Z,16.90
2018-05-19T08:45:49.258Z,16.90
2018-05-19T08:48:17.459Z,16.70
2018-05-19T08:50:45.048Z,16.70
2018-05-19T08:53:12.512Z,16.70
2018-05-19T08:55:41.109Z,16.70
2018-05-19T08:58:08.846Z,16.80
2018-05-19T09:00:36.449Z,16.90
2018-05-19T09:03:04.672Z,16.90
2018-05-19T09:05:32.251Z,16.90
2018-05-19T09:07:59.755Z,17.00
2018-05-19T09:10:27.991Z,17.20
2018-05-19T09:12:55.574Z,17.20
2018-05-19T09:15:23.807Z,17.40
2018-05-19T09:17:51.251Z,17.40
2018-05-19T09:20:18.728Z,17.50
2018-05-19T09:22:46.179Z,17.60
2018-05-19T09:25:13.674Z,17.70
2018-05-19T09:27:41.279Z,17.80
2018-05-19T09:30:08.715Z,17.80
2018-05-19T09:32:36.498Z,17.90
2018-05-19T09:35:03.956Z,17.90
2018-05-19T09:37:33.311Z,17.90
2018-05-19T09:40:00.779Z,18.00
2018-05-19T09:42:29.203Z,18.30
2018-05-19T09:44:56.707Z,18.20
2018-05-19T09:47:25.596Z,18.70
2018-05-19T09:49:52.994Z,18.60
2018-05-19T09:52:20.473Z,18.90
2018-05-19T09:54:47.950Z,19.00
2018-05-19T09:57:15.429Z,19.10
2018-05-19T09:59:43.654Z,19.10
2018-05-19T10:02:11.266Z,19.10
2018-05-19T10:04:39.609Z,19.30
2018-05-19T10:07:07.131Z,19.30
2018-05-19T10:09:34.649Z,19.50
2018-05-19T10:12:02.893Z,19.80
2018-05-19T10:14:30.359Z,19.70
2018-05-19T10:16:57.842Z,19.80
2018-05-19T10:19:25.590Z,19.80
2018-05-19T10:21:53.081Z,20.00
2018-05-19T10:24:20.567Z,20.10
2018-05-19T10:26:48.015Z,20.20
2018-05-19T10:29:16.389Z,20.30
2018-05-19T10:31:44.711Z,20.50
2018-05-19T10:34:15.240Z,20.50
2018-05-19T10:36:42.721Z,20.70
2018-05-19T10:39:11.553Z,20.80
2018-05-19T10:41:38.968Z,20.80
2018-05-19T10:44:07.378Z,20.80
2018-05-19T10:46:34.990Z,20.70
2018-05-19T10:49:04.721Z,20.80
2018-05-19T10:51:32.356Z,20.90
2018-05-19T10:53:59.980Z,21.10
2018-05-19T10:56:28.299Z,21.20
2018-05-19T10:58:55.854Z,21.10
2018-05-19T11:01:23.294Z,21.30
2018-05-19T11:03:50.804Z,21.30
2018-05-19T11:06:18.271Z,21.30
2018-05-19T11:08:45.753Z,21.10
2018-05-19T11:11:13.211Z,21.00
2018-05-19T11:13:40.742Z,20.80
2018-05-19T11:16:08.218Z,20.70
2018-05-19T11:18:35.718Z,20.40
2018-05-19T11:21:03.230Z,20.20
2018-05-19T11:23:30.715Z,20.00
2018-05-19T11:25:58.479Z,20.10
2018-05-19T11:28:26.043Z,20.30
2018-05-19T11:30:53.519Z,20.50
2018-05-19T11:33:21.747Z,20.80
2018-05-19T11:35:49.392Z,20.70
2018-05-19T11:38:16.912Z,20.80
2018-05-19T11:40:45.140Z,20.80
2018-05-19T11:43:13.432Z,20.80
2018-05-19T11:45:40.878Z,20.80
2018-05-19T11:48:08.344Z,20.80
2018-05-19T11:50:35.884Z,20.90
2018-05-19T11:53:03.271Z,21.10
2018-05-19T11:55:31.489Z,21.30
2018-05-19T11:58:00.467Z,21.30
2018-05-19T12:00:27.923Z,21.20
2018-05-19T12:02:55.381Z,21.20
2018-05-19T12:05:22.879Z,21.10
2018-05-19T12:07:50.341Z,21.00
2018-05-19T12:10:17.812Z,21.00
2018-05-19T12:12:45.869Z,20.90
2018-05-19T12:15:14.156Z,20.90
2018-05-19T12:17:41.769Z,20.90
2018-05-19T12:20:09.271Z,20.90
2018-05-19T12:22:36.757Z,20.90
2018-05-19T12:25:05.003Z,20.90
2018-05-19T12:27:32.463Z,20.80
2018-05-19T12:29:59.966Z,20.80
2018-05-19T12:32:27.408Z,20.90
2018-05-19T12:34:55.655Z,21.20
2018-05-19T12:37:23.118Z,21.20
2018-05-19T12:39:50.590Z,21.30
2018-05-19T12:42:18.801Z,21.40
2018-05-19T12:44:47.414Z,21.40
2018-05-19T12:47:14.879Z,21.40
2018-05-19T12:49:42.347Z,21.40
2018-05-19T12:52:09.798Z,21.30
2018-05-19T12:54:39.103Z,21.30
2018-05-19T12:57:06.566Z,21.30
2018-05-19T12:59:34.114Z,21.30
2018-05-19T13:02:02.388Z,21.50
2018-05-19T13:04:29.948Z,21.50
2018-05-19T13:06:57.460Z,21.70
2018-05-19T13:09:25.313Z,22.00
2018-05-19T13:11:52.853Z,22.30
2018-05-19T13:14:21.067Z,23.00
2018-05-19T13:16:48.535Z,23.00
2018-05-19T13:19:15.992Z,23.30
2018-05-19T13:21:43.476Z,23.60
2018-05-19T13:24:10.911Z,23.80
2018-05-19T13:26:38.391Z,23.90
2018-05-19T13:29:05.884Z,24.00
2018-05-19T13:31:33.386Z,24.20
2018-05-19T13:34:00.840Z,24.30
2018-05-19T13:36:29.358Z,24.50
2018-05-19T13:38:57.977Z,24.70
2018-05-19T13:41:25.769Z,24.70
2018-05-19T13:43:53.199Z,24.90
2018-05-19T13:46:20.735Z,25.10
2018-05-19T13:48:48.260Z,25.20
2018-05-19T13:51:15.761Z,25.30
2018-05-19T13:53:43.230Z,25.40
2018-05-19T13:56:10.671Z,25.40
2018-05-19T13:58:38.167Z,25.60
2018-05-19T14:01:05.647Z,25.60
2018-05-19T14:03:34.629Z,25.70
2018-05-19T14:06:02.193Z,25.70
2018-05-19T14:08:29.663Z,25.70
2018-05-19T14:10:57.923Z,25.30
2018-05-19T14:13:25.397Z,25.30
2018-05-19T14:15:52.842Z,25.10
2018-05-19T14:18:21.271Z,24.80
2018-05-19T14:20:48.723Z,24.50
2018-05-19T14:23:16.270Z,24.20
2018-05-19T14:25:43.815Z,24.00
2018-05-19T14:28:12.198Z,23.80
2018-05-19T14:30:39.916Z,23.80
2018-05-19T14:33:08.198Z,23.80
2018-05-19T14:35:35.755Z,24.00
2018-05-19T14:38:03.249Z,24.10
2018-05-19T14:40:31.599Z,24.40
2018-05-19T14:42:59.071Z,24.40
2018-05-19T14:45:26.563Z,24.50
2018-05-19T14:47:54.007Z,24.60
2018-05-19T14:50:22.301Z,24.60
2018-05-19T14:52:49.770Z,24.60
2018-05-19T14:55:17.229Z,24.70
2018-05-19T14:57:44.693Z,24.70
2018-05-19T15:00:12.969Z,24.70
2018-05-19T15:02:40.414Z,24.70
2018-05-19T15:05:08.156Z,24.80
2018-05-19T15:07:35.602Z,24.90
2018-05-19T15:10:04.063Z,24.90
2018-05-19T15:12:31.546Z,24.90
2018-05-19T15:15:01.465Z,24.80
2018-05-19T15:17:29.806Z,24.60
2018-05-19T15:19:58.135Z,24.40
2018-05-19T15:22:25.640Z,24.40
2018-05-19T15:24:53.245Z,24.20
2018-05-19T15:27:20.748Z,24.10
2018-05-19T15:29:48.259Z,23.90
2018-05-19T15:32:15.752Z,23.70
2018-05-19T15:34:43.203Z,23.60
2018-05-19T15:37:10.685Z,23.50
2018-05-19T15:39:39.641Z,23.20
2018-05-19T15:42:07.135Z,23.20
2018-05-19T15:44:35.355Z,23.00
2018-05-19T15:47:02.855Z,23.00
2018-05-19T15:49:30.327Z,22.90
2018-05-19T15:51:57.796Z,22.90
2018-05-19T15:54:26.002Z,22.90
2018-05-19T15:56:53.523Z,22.80
2018-05-19T15:59:20.975Z,22.90
2018-05-19T16:01:48.461Z,22.90
2018-05-19T16:04:15.928Z,23.00
2018-05-19T16:06:43.416Z,23.10
2018-05-19T16:09:10.864Z,23.20
2018-05-19T16:11:38.336Z,23.20
2018-05-19T16:14:05.810Z,23.20
2018-05-19T16:16:33.286Z,23.30
2018-05-19T16:19:01.545Z,23.40
2018-05-19T16:21:28.996Z,23.40
2018-05-19T16:23:57.319Z,23.40
2018-05-19T16:26:24.789Z,23.40
2018-05-19T16:28:52.229Z,23.40
2018-05-19T16:31:19.722Z,23.30
2018-05-19T16:33:47.312Z,23.20
2018-05-19T16:36:14.782Z,23.20
2018-05-19T16:38:42.853Z,23.10
2018-05-19T16:41:11.259Z,23.00
2018-05-19T16:43:38.853Z,22.90
2018-05-19T16:46:06.383Z,22.90
2018-05-19T16:48:33.911Z,22.80
2018-05-19T16:51:01.487Z,22.80
2018-05-19T16:53:28.957Z,22.80
2018-05-19T16:55:56.504Z,22.80
2018-05-19T16:58:24.019Z,22.70
2018-05-19T17:00:51.505Z,22.80
2018-05-19T17:03:18.947Z,22.80
2018-05-19T17:05:47.277Z,22.70
2018-05-19T17:08:14.717Z,22.70
2018-05-19T17:10:42.259Z,22.70
2018-05-19T17:13:09.719Z,22.70
2018-05-19T17:15:37.234Z,22.70
2018-05-19T17:18:04.720Z,22.60
2018-05-19T17:20:33.548Z,22.50
2018-05-19T17:23:01.063Z,22.50
2018-05-19T17:25:28.993Z,22.40
2018-05-19T17:27:56.494Z,22.30
2018-05-19T17:30:24.763Z,22.20
2018-05-19T17:32:52.261Z,22.20
2018-05-19T17:35:19.716Z,22.10
2018-05-19T17:37:47.199Z,22.00
2018-05-19T17:40:14.638Z,21.80
2018-05-19T17:42:42.132Z,21.70
2018-05-19T17:45:10.754Z,21.50
2018-05-19T17:47:38.215Z,21.40
2018-05-19T17:50:05.674Z,21.40
2018-05-19T17:52:33.232Z,21.30
2018-05-19T17:55:00.709Z,21.30
2018-05-19T17:57:28.356Z,21.20
2018-05-19T17:59:55.843Z,21.10
2018-05-19T18:02:24.826Z,21.10
2018-05-19T18:04:53.310Z,21.00
2018-05-19T18:07:20.850Z,21.00
2018-05-19T18:09:48.324Z,21.00
2018-05-19T18:12:15.858Z,21.00
2018-05-19T18:14:43.331Z,20.90
2018-05-19T18:17:10.996Z,20.90
2018-05-19T18:19:38.472Z,20.90
2018-05-19T18:22:05.923Z,20.80
2018-05-19T18:24:34.165Z,20.70
2018-05-19T18:27:01.655Z,20.70
2018-05-19T18:29:29.122Z,20.70
2018-05-19T18:31:56.557Z,20.60
2018-05-19T18:34:24.088Z,20.50
2018-05-19T18:36:51.643Z,20.50
2018-05-19T18:39:19.386Z,20.40
2018-05-19T18:41:46.864Z,20.30
2018-05-19T18:44:14.894Z,20.20
2018-05-19T18:46:42.440Z,20.20
2018-05-19T18:49:10.368Z,20.10
2018-05-19T18:51:45.745Z,20.10
2018-05-19T18:54:13.364Z,20.00
2018-05-19T18:56:40.817Z,20.00
2018-05-19T18:59:09.559Z,19.90
2018-05-19T19:01:37.061Z,19.80
2018-05-19T19:04:04.770Z,19.80
2018-05-19T19:06:33.039Z,19.60
2018-05-19T19:09:00.581Z,19.60
2018-05-19T19:11:28.938Z,19.40
2018-05-19T19:13:58.191Z,19.30
2018-05-19T19:16:25.823Z,19.30
2018-05-19T19:18:53.535Z,19.20
2018-05-19T19:21:20.991Z,19.20
2018-05-19T19:23:48.518Z,19.10
2018-05-19T19:26:15.983Z,19.00
2018-05-19T19:28:43.454Z,19.00
2018-05-19T19:31:11.673Z,18.80
2018-05-19T19:33:39.167Z,18.80
2018-05-19T19:36:06.652Z,18.80
2018-05-19T19:38:34.899Z,18.60
2018-05-19T19:41:03.129Z,18.60
2018-05-19T19:43:30.616Z,18.60
2018-05-19T19:45:58.154Z,18.50
2018-05-19T19:48:25.631Z,18.40
2018-05-19T19:50:53.302Z,18.30
2018-05-19T19:53:20.806Z,18.30
2018-05-19T19:55:48.956Z,18.20
2018-05-19T19:58:16.487Z,18.10
2018-05-19T20:00:43.959Z,18.10
2018-05-19T20:03:11.435Z,18.00
2018-05-19T20:05:39.705Z,17.90
2018-05-19T20:08:07.308Z,17.80
2018-05-19T20:10:34.857Z,17.80
2018-05-19T20:13:02.373Z,17.70
2018-05-19T20:15:29.820Z,17.70
2018-05-19T20:17:57.349Z,17.70
2018-05-19T20:20:24.827Z,17.70
2018-05-19T20:22:52.835Z,17.60
2018-05-19T20:25:20.370Z,17.60
2018-05-19T20:27:47.980Z,17.50
2018-05-19T20:30:15.460Z,17.50
2018-05-19T20:32:43.127Z,17.40
2018-05-19T20:35:10.647Z,17.40
2018-05-19T20:37:38.510Z,17.30
2018-05-19T20:40:06.185Z,17.20
2018-05-19T20:42:33.791Z,17.10
2018-05-19T20:45:01.960Z,17.00
2018-05-19T20:47:29.416Z,17.00
2018-05-19T20:49:56.906Z,16.90
2018-05-19T20:52:24.406Z,16.90
2018-05-19T20:54:51.920Z,16.90
2018-05-19T20:57:20.139Z,16.70
2018-05-19T20:59:47.636Z,16.70
2018-05-19T21:02:15.875Z,16.70
2018-05-19T21:04:43.448Z,16.70
2018-05-19T21:07:10.909Z,16.70
2018-05-19T21:09:38.476Z,16.60
2018-05-19T21:12:07.432Z,16.60
2018-05-19T21:14:35.008Z,16.60
2018-05-19T21:17:03.276Z,16.50
2018-05-19T21:19:31.832Z,16.50
2018-05-19T21:21:59.431Z,16.50
2018-05-19T21:24:27.013Z,16.50
2018-05-19T21:26:55.227Z,16.40
2018-05-19T21:29:23.124Z,16.40
2018-05-19T21:31:50.616Z,16.30
2018-05-19T21:34:18.938Z,16.20
2018-05-19T21:36:46.460Z,16.20
2018-05-19T21:39:14.675Z,16.20
2018-05-19T21:41:42.131Z,16.20
2018-05-19T21:44:09.591Z,16.10
2018-05-19T21:46:37.060Z,16.10
2018-05-19T21:49:04.526Z,16.10
2018-05-19T21:51:32.024Z,16.10
2018-05-19T21:54:00.255Z,16.00
2018-05-19T21:56:27.879Z,16.00
2018-05-19T21:58:55.331Z,16.00
2018-05-19T22:01:22.866Z,16.00
2018-05-19T22:03:51.091Z,15.90
2018-05-19T22:06:18.691Z,15.80
2018-05-19T22:08:46.961Z,15.80
2018-05-19T22:11:14.529Z,15.80
2018-05-19T22:13:41.996Z,15.80
2018-05-19T22:16:09.534Z,15.70
2018-05-19T22:18:37.870Z,15.60
2018-05-19T22:21:05.331Z,15.60
2018-05-19T22:23:32.777Z,15.50
2018-05-19T22:26:00.264Z,15.50
2018-05-19T22:28:27.779Z,15.40
2018-05-19T22:30:55.235Z,15.40
2018-05-19T22:33:22.723Z,15.40
2018-05-19T22:35:50.215Z,15.30
2018-05-19T22:38:18.471Z,15.30
2018-05-19T22:40:45.936Z,15.30
2018-05-19T22:43:14.711Z,15.30
2018-05-19T22:45:42.227Z,15.30
2018-05-19T22:48:09.993Z,15.20
2018-05-19T22:50:37.527Z,15.20
2018-05-19T22:53:06.840Z,15.10
2018-05-19T22:55:34.351Z,15.10
2018-05-19T22:58:03.316Z,15.20
2018-05-19T23:00:31.195Z,15.10
2018-05-19T23:02:59.567Z,15.10
2018-05-19T23:05:27.072Z,15.10
2018-05-19T23:07:55.488Z,15.10
2018-05-19T23:10:22.955Z,15.10
2018-05-19T23:12:50.423Z,15.00
2018-05-19T23:15:17.915Z,15.00
2018-05-19T23:17:46.142Z,15.00
2018-05-19T23:20:13.636Z,14.90
2018-05-19T23:22:42.891Z,14.90
2018-05-19T23:25:10.493Z,14.90
2018-05-19T23:27:38.756Z,14.90
2018-05-19T23:30:06.192Z,14.90
2018-05-19T23:32:33.666Z,14.90
2018-05-19T23:35:01.139Z,14.80
2018-05-19T23:37:28.666Z,14.80
2018-05-19T23:39:57.032Z,14.80
2018-05-19T23:42:24.529Z,14.70
2018-05-19T23:44:52.125Z,14.70
2018-05-19T23:47:19.617Z,14.70
2018-05-19T23:49:47.233Z,14.70
2018-05-19T23:52:14.809Z,14.70
2018-05-19T23:54:42.250Z,14.60
2018-05-19T23:57:09.727Z,14.60
2018-05-19T23:59:37.188Z,14.60
